Terminal Aerodrome Forecast
Issued by NWS

Home | Current Version | Previous Version | Text Only | Print | Product List | Glossary On
Versions: 1 2 3 4 5 6 7 8 9 10 11 12
913
FTUS43 KGRB 191125
TAFAUW
TAF
KAUW 191125Z 1912/2012 27006KT P6SM BKN250
     FM191500 26009G15KT P6SM SCT250
     FM192200 21005KT P6SM SKC
     FM200600 19004KT P6SM SKC WS018/22035KT=

USA.gov is the U.S. government's official web portal to all federal, state and local government web resources and services.